Paris-Orly Airport

LFPO · Essonne, Île-de-France, 法国

罗盘
风向 的 风向 的 风向 到 风向 130° Paris-Orly Airport 6/24
风: 7 kt, 3 beaufort

3 kt

7 kt
改变
0 ft 2.000 4.000 6.000 8.000 10.000
Cloud Cloud Cloud Cloud
SCT 4.600
Cloud Cloud Cloud Cloud
SCT 5.600
METAR LFPO 251400Z 13007KT 080V180 9999 SCT046 SCT056 22/11 Q1017 NOSIG

METAR Paris-Orly Airport - LFPO/ORY

Paris-Orly Airport是,法国中的大型机场。 该机场位于纬度48,72630和经度2,36699。 该机场有3条跑道: 6/24, 2/20 和 7/25. 本场的ICAO机场代码为LFPO。 该机场的IATA代码为ORY。 机场在Paris FIR中。

该航空气象观测是针对Paris-Orly Airport在2024年5月25日 16:00, 当地时间进行的。

机场观察

风向为130°,速度为7 kt。 风向在080°和180°之间变化。

可见度为10 km 或者更多。

有疏云,零星散落的云朵在4.600 ft的高度 和 疏云,零星散落的云朵在5.600 ft的高度。 没有观察到天花板。

温度和风寒是22 °C。 露点为11 °C,相对湿度为50%。 海平面上的气压为1017 hPa (QNH)。

白天

今天,太阳从05:57升起,在21:37降落。 这适用于Paris-Orly Airport,世界夏令时可能有所不同。 当地时间与世界标准时间之间的时差为+2 小时。 夏令时目前正在进行中。

公司介绍

在这个机场,你可以找到飞行俱乐部。 本场上唯一已知的公司是France DC3。

体会

到Vliegles.nl去找飞行课程,跳伞和其他飞行体验。 浏览页面,了解Paris-Orly Airport附近所有可用的活动。 你也可以使用搜索功能来寻找你所在地附近的特定飞行课程、跳伞或其他飞行体验。

跑道

Id 标题 侧风 逆风 侧风 %
6/24 061°-241° 7 kt 3 kt 93 %
2/20 017°-197° 6 kt 3 kt 92 %
7/25 073°-253° 6 kt 4 kt 84 %

逆风成分最大的方向会被突出显示,并用于横风计算。 这并不一定意味着这个方向在使用。

乌云

4.600 ft SCT 疏云,零星散落的云朵
5.600 ft SCT 疏云,零星散落的云朵

温度 & 天气

温度 22 °C
露点 11 °C
相对湿度 50%
Kp-index 0 (0-9)

白天

日出
05:57
中午
13:47
日落
21:37 (5:21)

小工具

你想在你的网站上有一个关于Paris-Orly Airport的当前航空天气(METAR)的小部件吗?

显示HTML代码
报告变更